メインページ
METAR-TAF:

METAR-TAF

空港 :

シラキューズ・ハンコック国際空港

シラキュース, ニューヨーク, アメリカ合衆国

緯度: 43-06-33N, 経度: 076-06-12W, 海抜: 128m

現時点の気象観測

当レポートは41分前の15:01(UTC)に作成
の風 4kt
気温 23°C
湿度 89%
気圧 1013 hPa
視程: 16.1km
高度800ftの雲は散在している
高度4500ftの千切れ雲あり
高度5000ftの曇り
小雨

METAR: KSYR 211501Z 18004KT 10SM -RA SCT008 BKN045 OVC050 23/21 A2990 RMK AO2 P0000 T02280206

時間: 11:42 (15:42 UTC)

予報

当レポートは54分前の14:48(UTC)に作成
予報は21日の 15時(UTC)から 22日の 12時(UTC)まで有効
変向風 3kt
視程: 10km
高度1500ftの千切れ雲あり
弱いにわか雨
21日の 1630時(UTC)から
南/南西の風 5kt
視程: 10km
高度3500ftの千切れ雲あり
21日の 2100時(UTC)から
南西の風 4kt
視程: 10km
高度5000ftの千切れ雲あり
22日の 0700時(UTC)から
西の風 6kt
視程: 10km
高度3000ftの千切れ雲あり

TAF: KSYR 211448Z 2115/2212 VRB03KT P6SM -SHRA BKN015 FM211630 20005KT P6SM BKN035 FM212100 23004KT P6SM BKN050 FM220700 26006KT P6SM BKN030

4,000以上の空港の気象観測と天気予報(METAR報とTAF報)

利用可能な観測所は地図上に黄色い丸と赤い丸で示す。

丸の上にカーソルを重ねると観測所名を参照できる。

次にクリックすると気象観測と天気予報を参照できる。

マップの切り替え:黒色「×」印の緑ボタンをクリックして拡大、「-」印の緑ボタンをクリックして縮小、緑色の三角印をクリックして隣りの地図に切り替え


METAR-TAF: